createdAt,value
2022-11-27T00:01:36.091Z,35.70
2022-11-27T00:04:05.918Z,34.70
2022-11-27T00:06:34.903Z,38.60
2022-11-27T00:09:07.805Z,39.50
2022-11-27T00:11:35.741Z,36.40
2022-11-27T00:14:03.901Z,35.20
2022-11-27T00:16:34.544Z,33.20
2022-11-27T00:19:02.366Z,32.60
2022-11-27T00:21:33.166Z,33.20
2022-11-27T00:24:04.498Z,33.80
2022-11-27T00:26:37.551Z,32.70
2022-11-27T00:29:07.123Z,31.10
2022-11-27T00:31:37.745Z,31.90
2022-11-27T00:34:08.759Z,32.20
2022-11-27T00:36:37.547Z,33.10
2022-11-27T00:39:06.120Z,30.70
2022-11-27T00:41:34.255Z,31.50
2022-11-27T00:44:02.041Z,32.00
2022-11-27T00:46:32.993Z,33.40
2022-11-27T00:49:03.606Z,32.80
2022-11-27T00:51:32.424Z,32.00
2022-11-27T00:54:00.998Z,32.30
2022-11-27T00:56:39.517Z,30.30
2022-11-27T00:59:08.015Z,29.10
2022-11-27T01:01:41.547Z,30.40
2022-11-27T01:04:14.184Z,29.80
2022-11-27T01:06:43.166Z,29.60
2022-11-27T01:09:13.243Z,27.50
2022-11-27T01:11:41.891Z,30.00
2022-11-27T01:14:17.982Z,27.70
2022-11-27T01:16:46.060Z,27.10
2022-11-27T01:19:16.790Z,28.70
2022-11-27T01:21:45.039Z,28.40
2022-11-27T01:24:15.288Z,28.00
2022-11-27T01:26:44.044Z,27.90
2022-11-27T01:29:12.260Z,28.40
2022-11-27T01:31:40.360Z,29.60
2022-11-27T01:34:14.234Z,29.60
2022-11-27T01:36:42.458Z,30.20
2022-11-27T01:39:16.201Z,29.30
2022-11-27T01:41:45.245Z,28.40
2022-11-27T01:44:25.442Z,29.50
2022-11-27T01:47:05.847Z,29.60
2022-11-27T01:49:49.102Z,29.40
2022-11-27T01:52:27.466Z,29.00
2022-11-27T01:55:05.109Z,28.70
2022-11-27T01:57:46.148Z,30.40
2022-11-27T02:00:17.067Z,32.10
2022-11-27T02:02:45.912Z,30.10
2022-11-27T02:05:19.506Z,30.60
2022-11-27T02:07:48.271Z,30.00
2022-11-27T02:10:16.551Z,30.00
2022-11-27T02:13:36.410Z,30.10
2022-11-27T02:17:00.758Z,30.70
2022-11-27T02:20:00.589Z,30.50
2022-11-27T02:23:10.469Z,32.20
2022-11-27T02:25:56.854Z,32.90
2022-11-27T02:28:52.500Z,32.90
2022-11-27T02:31:31.255Z,32.90
2022-11-27T02:34:11.851Z,32.60
2022-11-27T02:36:44.215Z,33.20
2022-11-27T02:39:19.136Z,37.10
2022-11-27T02:41:59.371Z,34.70
2022-11-27T02:44:29.148Z,32.60
2022-11-27T02:46:57.408Z,32.80
2022-11-27T02:49:25.729Z,33.20
2022-11-27T02:51:57.735Z,33.80
2022-11-27T02:54:29.225Z,31.80
2022-11-27T02:57:00.912Z,34.70
2022-11-27T02:59:31.373Z,28.80
2022-11-27T03:02:09.293Z,30.00
2022-11-27T03:04:49.779Z,31.10
2022-11-27T03:07:59.164Z,30.00
2022-11-27T03:10:43.899Z,30.90
2022-11-27T03:13:11.999Z,30.70
2022-11-27T03:15:56.658Z,31.10
2022-11-27T03:18:56.397Z,30.50
2022-11-27T03:21:37.559Z,31.20
2022-11-27T03:24:07.336Z,29.80
2022-11-27T03:26:35.897Z,30.30
2022-11-27T03:29:08.856Z,31.20
2022-11-27T03:31:37.545Z,30.40
2022-11-27T03:34:05.779Z,29.90
2022-11-27T03:36:33.590Z,30.70
2022-11-27T03:39:01.523Z,31.30
2022-11-27T03:41:59.910Z,32.40
2022-11-27T03:45:21.508Z,40.00
2022-11-27T03:48:08.087Z,39.30
2022-11-27T03:50:47.577Z,41.20
2022-11-27T03:53:39.471Z,34.90
2022-11-27T03:56:41.631Z,33.00
2022-11-27T03:59:20.901Z,32.50
2022-11-27T04:01:48.921Z,35.50
2022-11-27T04:04:16.851Z,33.00
2022-11-27T04:06:44.740Z,33.80
2022-11-27T04:09:12.532Z,29.80
2022-11-27T04:11:40.701Z,29.40
2022-11-27T04:14:08.639Z,31.30
2022-11-27T04:16:36.583Z,31.90
2022-11-27T04:19:04.638Z,31.60
2022-11-27T04:21:32.445Z,30.30
2022-11-27T04:24:00.313Z,31.60
2022-11-27T04:26:28.188Z,31.60
2022-11-27T04:28:55.978Z,33.30
2022-11-27T04:31:23.883Z,33.50
2022-11-27T04:33:51.735Z,30.80
2022-11-27T04:36:19.588Z,31.30
2022-11-27T04:38:47.519Z,29.10
2022-11-27T04:41:15.305Z,30.80
2022-11-27T04:43:43.182Z,31.70
2022-11-27T04:46:11.049Z,29.20
2022-11-27T04:48:38.937Z,30.20
2022-11-27T04:51:06.913Z,29.70
2022-11-27T04:53:34.812Z,30.00
2022-11-27T04:56:02.597Z,30.60
2022-11-27T04:58:30.525Z,30.70
2022-11-27T05:00:58.444Z,29.50
2022-11-27T05:03:26.395Z,30.10
2022-11-27T05:05:56.784Z,28.50
2022-11-27T05:08:25.594Z,28.90
2022-11-27T05:11:04.567Z,29.70
2022-11-27T05:13:32.868Z,29.90
2022-11-27T05:16:00.965Z,29.60
2022-11-27T05:18:29.117Z,30.20
2022-11-27T05:21:06.140Z,28.70
2022-11-27T05:23:35.002Z,28.90
2022-11-27T05:26:03.576Z,28.50
2022-11-27T05:28:31.533Z,29.70
2022-11-27T05:30:59.746Z,30.00
2022-11-27T05:33:27.600Z,30.80
2022-11-27T05:35:55.469Z,30.40
2022-11-27T05:38:23.307Z,30.10
2022-11-27T05:40:51.065Z,29.10
2022-11-27T05:43:18.937Z,30.00
2022-11-27T05:45:46.795Z,30.60
2022-11-27T05:48:14.649Z,28.30
2022-11-27T05:50:42.393Z,26.30
2022-11-27T05:53:10.259Z,29.50
2022-11-27T05:55:38.166Z,29.40
2022-11-27T05:58:06.082Z,30.10
2022-11-27T06:00:33.955Z,30.60
2022-11-27T06:03:01.986Z,29.60
2022-11-27T06:05:30.072Z,31.20
2022-11-27T06:07:57.894Z,31.10
2022-11-27T06:10:25.648Z,31.40
2022-11-27T06:12:53.465Z,28.00
2022-11-27T06:15:21.692Z,28.00
2022-11-27T06:17:50.628Z,28.10
2022-11-27T06:20:20.411Z,28.00
2022-11-27T06:22:48.419Z,30.70
2022-11-27T06:25:16.789Z,33.60
2022-11-27T06:27:44.789Z,32.40
2022-11-27T06:30:13.413Z,33.50
2022-11-27T06:32:41.914Z,31.70
2022-11-27T06:35:10.300Z,28.60
2022-11-27T06:37:38.054Z,29.40
2022-11-27T06:40:07.218Z,26.60
2022-11-27T06:42:35.107Z,28.40
2022-11-27T06:45:05.679Z,27.60
2022-11-27T06:47:34.252Z,29.50
2022-11-27T06:50:02.204Z,27.60
2022-11-27T06:52:33.651Z,29.90
2022-11-27T06:55:05.637Z,27.60
2022-11-27T06:58:07.177Z,28.00
2022-11-27T07:00:41.624Z,25.30
2022-11-27T07:03:12.141Z,24.50
2022-11-27T07:05:42.752Z,24.70
2022-11-27T07:08:10.699Z,25.20
2022-11-27T07:10:42.795Z,26.10
2022-11-27T07:13:18.219Z,24.70
2022-11-27T07:15:46.219Z,25.70
2022-11-27T07:18:16.415Z,25.90
2022-11-27T07:20:56.225Z,26.50
2022-11-27T07:23:24.876Z,24.30
2022-11-27T07:25:52.867Z,27.00
2022-11-27T07:28:20.951Z,28.10
2022-11-27T07:30:57.661Z,24.80
2022-11-27T07:33:26.653Z,27.60
2022-11-27T07:36:06.143Z,28.20
2022-11-27T07:38:35.349Z,28.50
2022-11-27T07:41:10.287Z,26.70
2022-11-27T07:43:45.266Z,26.90
2022-11-27T07:49:13.275Z,25.40
2022-11-27T07:51:44.134Z,25.10
2022-11-27T07:54:16.587Z,26.30
2022-11-27T07:56:46.731Z,25.20
2022-11-27T07:59:18.028Z,25.40
2022-11-27T08:01:46.217Z,24.40
2022-11-27T08:04:14.702Z,25.10
2022-11-27T08:06:42.746Z,25.20
2022-11-27T08:09:13.799Z,24.20
2022-11-27T08:11:52.342Z,23.70
2022-11-27T08:14:21.029Z,25.90
2022-11-27T08:16:51.762Z,22.90
2022-11-27T08:19:20.223Z,24.60
2022-11-27T08:22:06.224Z,24.80
2022-11-27T08:24:35.323Z,23.60
2022-11-27T08:27:07.415Z,24.60
2022-11-27T08:29:49.995Z,25.50
2022-11-27T08:36:09.722Z,27.50
2022-11-27T08:39:05.824Z,26.50
2022-11-27T08:41:49.076Z,26.50
2022-11-27T08:44:25.310Z,26.90
2022-11-27T08:47:00.849Z,27.00
2022-11-27T08:49:29.194Z,26.40
2022-11-27T08:51:57.579Z,25.90
2022-11-27T08:54:25.885Z,25.30
2022-11-27T08:56:56.493Z,23.80
2022-11-27T08:59:25.335Z,25.10
2022-11-27T09:01:53.815Z,25.90
2022-11-27T09:04:29.058Z,24.50
2022-11-27T09:07:13.040Z,25.00
2022-11-27T09:09:49.616Z,24.60
2022-11-27T09:13:00.645Z,26.20
2022-11-27T09:19:16.134Z,23.30
2022-11-27T09:22:12.647Z,21.90
2022-11-27T09:28:08.649Z,20.60
2022-11-27T09:30:39.881Z,19.30
2022-11-27T09:33:12.954Z,21.00
2022-11-27T09:35:44.849Z,21.30
2022-11-27T09:38:20.768Z,19.50
2022-11-27T09:41:04.436Z,18.70
2022-11-27T09:43:41.770Z,18.00
2022-11-27T09:46:25.378Z,17.50
2022-11-27T09:49:03.792Z,18.20
2022-11-27T09:51:46.632Z,16.60
2022-11-27T09:54:27.920Z,14.80
2022-11-27T09:57:00.036Z,16.70
2022-11-27T09:59:43.837Z,15.40
2022-11-27T10:02:32.159Z,15.60
2022-11-27T10:05:13.982Z,16.00
2022-11-27T10:08:28.061Z,16.20
2022-11-27T10:11:16.902Z,17.60
2022-11-27T10:14:28.029Z,17.70
2022-11-27T10:17:06.628Z,15.00
2022-11-27T10:20:23.651Z,13.60
2022-11-27T10:23:32.262Z,14.50
2022-11-27T10:26:32.879Z,15.20
2022-11-27T10:29:48.812Z,14.70
2022-11-27T10:35:23.197Z,13.90
2022-11-27T10:38:22.060Z,16.70
2022-11-27T10:41:34.417Z,18.50
2022-11-27T10:44:21.014Z,18.70
2022-11-27T10:46:51.226Z,19.30
2022-11-27T10:49:19.842Z,23.10
2022-11-27T10:51:48.651Z,22.70
2022-11-27T10:54:28.078Z,20.70
2022-11-27T10:57:47.197Z,19.80
2022-11-27T11:00:27.503Z,17.70
2022-11-27T11:03:05.406Z,16.90
2022-11-27T11:05:57.227Z,15.10
2022-11-27T11:08:30.499Z,14.90
2022-11-27T11:11:07.999Z,16.80
2022-11-27T11:13:47.465Z,16.00
2022-11-27T11:16:30.558Z,18.40
2022-11-27T11:19:33.465Z,18.40
2022-11-27T11:22:17.095Z,19.60
2022-11-27T11:24:50.470Z,17.00
2022-11-27T11:27:21.487Z,16.70
2022-11-27T11:29:54.957Z,17.00
2022-11-27T11:32:36.715Z,17.50
2022-11-27T11:35:27.554Z,17.10
2022-11-27T11:37:56.394Z,17.00
2022-11-27T11:40:36.572Z,17.10
2022-11-27T11:43:19.879Z,18.80
2022-11-27T11:45:50.942Z,20.30
2022-11-27T11:48:27.310Z,25.30
2022-11-27T11:51:02.011Z,24.40
2022-11-27T11:53:39.880Z,25.30
2022-11-27T11:56:34.273Z,24.20
2022-11-27T11:59:11.490Z,22.10
2022-11-27T12:02:04.254Z,22.40
2022-11-27T12:04:32.306Z,23.10
2022-11-27T12:07:11.562Z,20.50
2022-11-27T12:09:58.134Z,23.10
2022-11-27T12:13:33.032Z,30.20
2022-11-27T12:16:16.238Z,40.00
2022-11-27T12:19:13.159Z,24.40
2022-11-27T12:22:13.594Z,23.60
2022-11-27T12:24:55.019Z,24.20
2022-11-27T12:28:06.298Z,25.00
2022-11-27T12:30:58.783Z,24.30
2022-11-27T12:33:53.032Z,26.10
2022-11-27T12:36:40.518Z,24.50
2022-11-27T12:39:37.799Z,25.30
2022-11-27T12:42:36.814Z,24.90
2022-11-27T12:45:20.983Z,23.60
2022-11-27T12:47:58.516Z,25.10
2022-11-27T12:50:41.095Z,30.00
2022-11-27T12:53:24.761Z,26.80
2022-11-27T12:56:30.820Z,26.80
2022-11-27T12:59:34.028Z,29.10
2022-11-27T13:05:10.312Z,25.90
2022-11-27T13:07:56.836Z,28.10
2022-11-27T13:10:42.971Z,30.70
2022-11-27T13:13:43.630Z,35.70
2022-11-27T13:16:26.796Z,37.50
2022-11-27T13:19:29.022Z,34.50
2022-11-27T13:21:57.994Z,34.00
2022-11-27T13:24:27.344Z,35.60
2022-11-27T13:27:06.023Z,31.70
2022-11-27T13:29:44.236Z,27.20
2022-11-27T13:32:31.144Z,27.80
2022-11-27T13:35:04.339Z,27.40
2022-11-27T13:37:40.180Z,27.70
2022-11-27T13:40:40.816Z,26.00
2022-11-27T13:43:31.261Z,29.10
2022-11-27T13:46:18.538Z,26.10
2022-11-27T13:48:57.666Z,29.20
2022-11-27T13:51:38.307Z,30.20
2022-11-27T13:54:22.295Z,29.50
2022-11-27T13:56:52.474Z,38.30
2022-11-27T13:59:24.000Z,33.30
2022-11-27T14:02:06.296Z,33.00
2022-11-27T14:04:36.014Z,33.10
2022-11-27T14:07:11.829Z,32.90
2022-11-27T14:09:56.279Z,30.50
2022-11-27T14:12:29.844Z,30.20
2022-11-27T14:15:16.719Z,35.10
2022-11-27T14:17:50.348Z,39.50
2022-11-27T14:20:18.220Z,39.00
2022-11-27T14:23:13.626Z,35.00
2022-11-27T14:25:41.922Z,33.70
2022-11-27T14:28:31.305Z,35.90
2022-11-27T14:31:02.759Z,38.10
2022-11-27T14:33:47.352Z,49.90
2022-11-27T14:36:31.339Z,63.40
2022-11-27T14:39:04.887Z,66.70
2022-11-27T14:41:33.407Z,53.80
2022-11-27T14:44:05.512Z,49.30
2022-11-27T14:46:36.351Z,40.30
2022-11-27T14:49:18.064Z,41.30
2022-11-27T14:51:46.652Z,34.90
2022-11-27T14:54:26.336Z,34.70
2022-11-27T14:56:54.760Z,47.90
2022-11-27T14:59:24.934Z,48.90
2022-11-27T15:02:29.375Z,46.10
2022-11-27T15:05:06.552Z,55.80
2022-11-27T15:07:45.260Z,63.10
2022-11-27T15:10:40.795Z,79.10
2022-11-27T15:13:21.672Z,62.30
2022-11-27T15:16:06.379Z,58.90
2022-11-27T15:18:37.453Z,77.50
2022-11-27T15:21:12.419Z,72.00
2022-11-27T15:23:47.447Z,69.00
2022-11-27T15:26:40.681Z,69.70
2022-11-27T15:31:58.800Z,68.70
2022-11-27T15:34:31.087Z,63.60
2022-11-27T15:37:03.896Z,64.30
2022-11-27T15:39:51.890Z,56.60
2022-11-27T15:42:25.292Z,58.00
2022-11-27T15:44:58.333Z,63.70
2022-11-27T15:47:37.633Z,59.60
2022-11-27T15:50:07.358Z,60.40
2022-11-27T15:52:35.727Z,62.20
2022-11-27T15:55:04.606Z,74.10
2022-11-27T15:57:32.737Z,78.70
2022-11-27T16:00:00.839Z,72.40
2022-11-27T16:02:30.554Z,77.50
2022-11-27T16:04:58.819Z,70.70
2022-11-27T16:07:26.924Z,49.90
2022-11-27T16:09:55.003Z,45.00
2022-11-27T16:12:22.982Z,33.20
2022-11-27T16:14:57.002Z,33.40
2022-11-27T16:17:24.822Z,31.00
2022-11-27T16:19:56.243Z,25.90
2022-11-27T16:22:24.419Z,24.60
2022-11-27T16:24:53.000Z,24.20
2022-11-27T16:27:21.004Z,27.90
2022-11-27T16:29:49.204Z,27.70
2022-11-27T16:32:23.894Z,27.30
2022-11-27T16:34:52.178Z,24.20
2022-11-27T16:37:20.309Z,23.60
2022-11-27T16:39:48.526Z,23.60
2022-11-27T16:42:16.501Z,22.20
2022-11-27T16:44:45.015Z,22.80
2022-11-27T16:47:13.292Z,20.60
2022-11-27T16:49:41.328Z,21.90
2022-11-27T16:52:11.285Z,22.80
2022-11-27T16:54:39.719Z,22.90
2022-11-27T16:57:07.987Z,21.40
2022-11-27T16:59:38.346Z,23.80
2022-11-27T17:02:06.879Z,24.00
2022-11-27T17:04:34.863Z,22.80
2022-11-27T17:07:02.948Z,23.40
2022-11-27T17:09:31.290Z,25.00
2022-11-27T17:11:59.396Z,25.80
2022-11-27T17:14:31.076Z,25.00
2022-11-27T17:16:59.172Z,23.60
2022-11-27T17:19:29.940Z,24.60
2022-11-27T17:21:58.417Z,23.40
2022-11-27T17:24:26.772Z,24.40
2022-11-27T17:26:56.020Z,24.20
2022-11-27T17:29:24.198Z,24.20
2022-11-27T17:31:52.351Z,21.80
2022-11-27T17:34:21.391Z,20.40
2022-11-27T17:36:53.663Z,22.20
2022-11-27T17:39:22.111Z,21.70
2022-11-27T17:41:50.334Z,21.70
2022-11-27T17:44:19.219Z,21.20
2022-11-27T17:46:50.240Z,22.60
2022-11-27T17:49:19.685Z,22.60
2022-11-27T17:51:50.020Z,21.70
2022-11-27T17:54:18.837Z,22.40
2022-11-27T17:56:51.413Z,22.50
2022-11-27T17:59:20.609Z,29.40
2022-11-27T18:04:43.133Z,28.80
2022-11-27T18:07:12.787Z,26.50
2022-11-27T18:09:44.142Z,28.00
2022-11-27T18:12:12.627Z,27.60
2022-11-27T18:14:40.741Z,25.70
2022-11-27T18:17:09.342Z,25.40
2022-11-27T18:19:37.291Z,26.90
2022-11-27T18:22:05.415Z,27.10
2022-11-27T18:24:33.554Z,31.70
2022-11-27T18:27:09.491Z,33.70
2022-11-27T18:29:40.812Z,45.30
2022-11-27T18:32:10.647Z,44.50
2022-11-27T18:34:39.142Z,48.20
2022-11-27T18:37:09.397Z,45.90
2022-11-27T18:39:38.537Z,41.60
2022-11-27T18:42:07.919Z,40.50
2022-11-27T18:44:39.788Z,37.40
2022-11-27T18:47:16.160Z,34.20
2022-11-27T18:49:44.789Z,31.70
2022-11-27T18:52:13.565Z,28.40
2022-11-27T18:54:44.981Z,27.40
2022-11-27T18:57:14.525Z,28.10
2022-11-27T18:59:44.262Z,27.20
2022-11-27T19:02:15.750Z,35.60
2022-11-27T19:04:45.190Z,32.70
2022-11-27T19:07:13.360Z,35.20
2022-11-27T19:09:41.878Z,33.40
2022-11-27T19:12:10.309Z,32.90
2022-11-27T19:14:38.625Z,33.60
2022-11-27T19:17:06.613Z,33.00
2022-11-27T19:19:54.211Z,35.70
2022-11-27T19:22:22.731Z,38.20
2022-11-27T19:24:50.532Z,36.70
2022-11-27T19:27:18.663Z,31.80
2022-11-27T19:29:47.112Z,32.90
2022-11-27T19:32:15.040Z,29.30
2022-11-27T19:34:43.521Z,29.20
2022-11-27T19:37:11.764Z,29.70
2022-11-27T19:39:39.614Z,27.10
2022-11-27T19:42:13.028Z,29.00
2022-11-27T19:44:44.334Z,27.30
2022-11-27T19:47:12.359Z,27.20
2022-11-27T19:49:43.020Z,26.10
2022-11-27T19:52:17.225Z,27.70
2022-11-27T19:54:46.234Z,29.70
2022-11-27T19:57:16.730Z,30.20
2022-11-27T19:59:44.911Z,27.00
2022-11-27T20:02:16.621Z,25.50
2022-11-27T20:04:47.216Z,27.30
2022-11-27T20:07:18.300Z,29.20
2022-11-27T20:09:46.768Z,27.30
2022-11-27T20:12:15.759Z,26.50
2022-11-27T20:14:46.932Z,27.50
2022-11-27T20:17:17.430Z,27.20
2022-11-27T20:19:49.913Z,29.10
2022-11-27T20:22:21.071Z,29.40
2022-11-27T20:25:17.320Z,28.00
2022-11-27T20:27:41.386Z,28.00
2022-11-27T20:30:17.760Z,28.20
2022-11-27T20:32:48.566Z,26.70
2022-11-27T20:35:22.891Z,27.90
2022-11-27T20:37:54.716Z,25.80
2022-11-27T20:40:26.512Z,26.90
2022-11-27T20:42:54.748Z,25.40
2022-11-27T20:45:26.637Z,26.80
2022-11-27T20:47:59.320Z,26.30
2022-11-27T20:50:27.459Z,25.70
2022-11-27T20:53:08.776Z,24.80
2022-11-27T20:55:37.920Z,28.00
2022-11-27T20:58:06.257Z,26.30
2022-11-27T21:00:35.042Z,28.50
2022-11-27T21:07:23.787Z,28.40
2022-11-27T21:10:12.901Z,38.40
2022-11-27T21:12:52.363Z,33.20
2022-11-27T21:15:38.522Z,30.00
2022-11-27T21:18:06.914Z,31.50
2022-11-27T21:20:42.514Z,30.70
2022-11-27T21:23:11.132Z,31.40
2022-11-27T21:25:40.745Z,31.30
2022-11-27T21:28:10.403Z,29.50
2022-11-27T21:30:38.764Z,32.50
2022-11-27T21:33:07.313Z,32.50
2022-11-27T21:35:40.156Z,31.60
2022-11-27T21:38:08.793Z,32.10
2022-11-27T21:40:37.337Z,31.20
2022-11-27T21:43:08.229Z,31.10
2022-11-27T21:45:37.572Z,30.90
2022-11-27T21:48:14.305Z,31.70
2022-11-27T21:50:47.209Z,32.50
2022-11-27T21:55:46.203Z,30.60
2022-11-27T21:58:16.936Z,29.70
2022-11-27T22:00:45.492Z,31.30
2022-11-27T22:03:14.854Z,30.10
2022-11-27T22:05:45.935Z,30.90
2022-11-27T22:08:14.347Z,29.60
2022-11-27T22:10:43.835Z,31.20
2022-11-27T22:13:12.131Z,31.80
2022-11-27T22:15:46.488Z,31.70
2022-11-27T22:18:21.577Z,29.80
2022-11-27T22:20:54.573Z,28.20
2022-11-27T22:23:31.153Z,31.20
2022-11-27T22:26:05.474Z,28.80
2022-11-27T22:28:41.323Z,30.70
2022-11-27T22:31:16.170Z,27.20
2022-11-27T22:33:45.436Z,27.00
2022-11-27T22:36:31.425Z,28.30
2022-11-27T22:39:09.436Z,30.80
2022-11-27T22:41:39.756Z,30.30
2022-11-27T22:44:10.752Z,28.60
2022-11-27T22:46:41.525Z,29.10
2022-11-27T22:49:13.012Z,30.30
2022-11-27T22:51:41.919Z,29.70
2022-11-27T22:54:18.234Z,28.90
2022-11-27T22:56:47.230Z,29.10
2022-11-27T22:59:33.354Z,27.80
2022-11-27T23:02:03.772Z,26.50
2022-11-27T23:04:32.139Z,26.90
2022-11-27T23:07:00.547Z,28.10
2022-11-27T23:09:29.290Z,27.20
2022-11-27T23:11:58.718Z,28.30
2022-11-27T23:14:27.542Z,26.10
2022-11-27T23:16:57.982Z,27.70
2022-11-27T23:19:26.291Z,28.00
2022-11-27T23:21:56.612Z,27.20
2022-11-27T23:24:24.599Z,26.90
2022-11-27T23:26:52.591Z,28.00
2022-11-27T23:29:20.516Z,27.60
2022-11-27T23:31:48.631Z,28.90
2022-11-27T23:34:17.200Z,28.60
2022-11-27T23:36:45.163Z,28.70
2022-11-27T23:39:13.969Z,29.80
2022-11-27T23:41:42.663Z,29.90
2022-11-27T23:44:10.753Z,29.20
2022-11-27T23:46:38.869Z,29.00
2022-11-27T23:49:07.005Z,30.10
2022-11-27T23:51:35.511Z,29.60
2022-11-27T23:54:09.672Z,29.10
2022-11-27T23:56:38.758Z,30.80
2022-11-27T23:59:07.082Z,29.40
